createdAt,value
2024-03-12T00:00:25.973Z,82.27
2024-03-12T00:01:26.024Z,82.31
2024-03-12T00:02:25.924Z,82.31
2024-03-12T00:03:25.926Z,82.41
2024-03-12T00:04:25.903Z,82.51
2024-03-12T00:05:25.913Z,82.51
2024-03-12T00:06:25.926Z,82.62
2024-03-12T00:07:25.892Z,82.62
2024-03-12T00:08:25.901Z,82.62
2024-03-12T00:09:25.862Z,82.71
2024-03-12T00:10:25.854Z,82.82
2024-03-12T00:11:25.851Z,82.96
2024-03-12T00:12:25.839Z,82.96
2024-03-12T00:13:25.820Z,82.86
2024-03-12T00:14:25.812Z,82.86
2024-03-12T00:15:25.847Z,82.76
2024-03-12T00:16:25.811Z,82.65
2024-03-12T00:17:25.814Z,82.76
2024-03-12T00:18:25.793Z,82.96
2024-03-12T00:19:25.735Z,82.96
2024-03-12T00:20:25.733Z,82.76
2024-03-12T00:21:25.761Z,83.17
2024-03-12T00:22:25.725Z,83.37
2024-03-12T00:23:25.715Z,83.31
2024-03-12T00:24:25.720Z,83.31
2024-03-12T00:25:25.688Z,83.20
2024-03-12T00:26:25.692Z,83.20
2024-03-12T00:27:25.674Z,83.20
2024-03-12T00:28:25.712Z,83.20
2024-03-12T00:29:25.633Z,83.20
2024-03-12T00:30:25.662Z,83.00
2024-03-12T00:31:25.620Z,82.90
2024-03-12T00:32:25.602Z,82.90
2024-03-12T00:33:25.674Z,83.00
2024-03-12T00:34:25.600Z,83.25
2024-03-12T00:35:25.604Z,83.35
2024-03-12T00:36:25.559Z,83.35
2024-03-12T00:37:25.536Z,83.35
2024-03-12T00:38:25.557Z,83.55
2024-03-12T00:39:25.533Z,83.97
2024-03-12T00:40:25.518Z,83.97
2024-03-12T00:41:25.498Z,83.86
2024-03-12T00:42:25.557Z,84.07
2024-03-12T00:43:25.492Z,84.27
2024-03-12T00:44:25.517Z,84.38
2024-03-12T00:45:25.555Z,84.27
2024-03-12T00:46:25.475Z,84.17
2024-03-12T00:47:25.528Z,83.97
2024-03-12T00:48:25.517Z,83.86
2024-03-12T00:49:25.425Z,83.97
2024-03-12T00:50:25.433Z,83.97
2024-03-12T00:51:25.435Z,83.97
2024-03-12T00:52:25.406Z,83.97
2024-03-12T00:53:25.387Z,83.97
2024-03-12T00:54:25.390Z,84.07
2024-03-12T00:55:25.372Z,84.07
2024-03-12T00:56:25.373Z,84.07
2024-03-12T00:57:25.367Z,83.97
2024-03-12T00:58:25.367Z,83.97
2024-03-12T00:59:25.316Z,83.97
2024-03-12T01:00:25.311Z,84.07
2024-03-12T01:01:25.376Z,84.17
2024-03-12T01:02:25.279Z,84.27
2024-03-12T01:03:25.655Z,84.17
2024-03-12T01:04:25.277Z,84.17
2024-03-12T01:05:25.254Z,84.27
2024-03-12T01:06:25.293Z,84.38
2024-03-12T01:07:25.231Z,84.27
2024-03-12T01:08:25.258Z,84.58
2024-03-12T01:09:25.235Z,84.58
2024-03-12T01:10:25.219Z,84.69
2024-03-12T01:11:25.228Z,84.79
2024-03-12T01:12:25.210Z,84.79
2024-03-12T01:13:25.186Z,84.79
2024-03-12T01:14:25.159Z,84.79
2024-03-12T01:15:25.228Z,84.79
2024-03-12T01:16:25.220Z,84.79
2024-03-12T01:17:25.128Z,84.79
2024-03-12T01:18:25.222Z,84.99
2024-03-12T01:19:25.100Z,84.89
2024-03-12T01:20:25.132Z,84.99
2024-03-12T01:21:25.110Z,84.99
2024-03-12T01:22:25.092Z,84.99
2024-03-12T01:23:25.125Z,84.99
2024-03-12T01:24:25.101Z,85.10
2024-03-12T01:25:25.052Z,85.10
2024-03-12T01:26:25.034Z,85.10
2024-03-12T01:27:25.046Z,85.10
2024-03-12T01:28:25.036Z,85.10
2024-03-12T01:29:25.003Z,85.10
2024-03-12T01:30:25.003Z,84.89
2024-03-12T01:31:25.000Z,85.10
2024-03-12T01:32:24.994Z,85.24
2024-03-12T01:33:25.027Z,85.24
2024-03-12T01:34:24.955Z,85.14
2024-03-12T01:35:24.946Z,85.14
2024-03-12T01:36:24.951Z,85.24
2024-03-12T01:37:24.915Z,85.14
2024-03-12T01:38:25.015Z,85.24
2024-03-12T01:39:24.918Z,85.65
2024-03-12T01:40:24.912Z,85.96
2024-03-12T01:41:24.914Z,85.96
2024-03-12T01:42:24.912Z,85.96
2024-03-12T01:43:24.856Z,86.27
2024-03-12T01:44:24.861Z,86.27
2024-03-12T01:45:24.850Z,86.06
2024-03-12T01:46:24.836Z,85.96
2024-03-12T01:47:24.832Z,86.06
2024-03-12T01:48:24.865Z,85.96
2024-03-12T01:49:24.776Z,86.06
2024-03-12T01:50:24.765Z,86.16
2024-03-12T01:51:24.830Z,86.27
2024-03-12T01:52:24.765Z,86.16
2024-03-12T01:53:24.733Z,86.06
2024-03-12T01:54:24.746Z,86.16
2024-03-12T01:55:24.715Z,86.16
2024-03-12T01:56:24.722Z,86.16
2024-03-12T01:57:24.746Z,86.21
2024-03-12T01:58:24.716Z,86.21
2024-03-12T01:59:24.666Z,86.41
2024-03-12T02:00:24.725Z,86.31
2024-03-12T02:01:24.798Z,86.41
2024-03-12T02:03:36.806Z,86.61
2024-03-12T02:04:36.683Z,86.72
2024-03-12T02:05:36.688Z,86.72
2024-03-12T02:06:51.458Z,86.82
2024-03-12T02:07:36.660Z,86.68
2024-03-12T02:08:36.656Z,86.58
2024-03-12T02:09:36.663Z,86.47
2024-03-12T02:10:36.629Z,86.47
2024-03-12T02:11:36.649Z,86.27
2024-03-12T02:12:36.649Z,86.37
2024-03-12T02:13:36.608Z,86.37
2024-03-12T02:14:36.587Z,86.37
2024-03-12T02:15:36.629Z,86.47
2024-03-12T02:16:36.558Z,86.47
2024-03-12T02:17:36.565Z,86.37
2024-03-12T02:18:36.574Z,86.37
2024-03-12T02:19:36.539Z,86.27
2024-03-12T02:20:36.525Z,86.27
2024-03-12T02:21:36.531Z,86.27
2024-03-12T02:22:36.498Z,86.27
2024-03-12T02:23:36.503Z,86.27
2024-03-12T02:24:36.497Z,86.27
2024-03-12T02:25:36.475Z,86.37
2024-03-12T02:26:36.454Z,86.37
2024-03-12T02:27:36.466Z,86.37
2024-03-12T02:28:36.457Z,86.27
2024-03-12T02:29:37.405Z,86.37
2024-03-12T02:30:36.526Z,86.37
2024-03-12T02:31:36.448Z,86.31
2024-03-12T02:32:36.404Z,86.41
2024-03-12T02:33:36.440Z,86.37
2024-03-12T02:34:36.383Z,86.41
2024-03-12T02:35:36.421Z,86.41
2024-03-12T02:36:36.358Z,86.52
2024-03-12T02:37:36.344Z,86.52
2024-03-12T02:38:36.335Z,86.37
2024-03-12T02:39:36.355Z,86.27
2024-03-12T02:40:36.349Z,86.27
2024-03-12T02:41:36.301Z,86.41
2024-03-12T02:42:36.340Z,86.52
2024-03-12T02:43:36.279Z,86.41
2024-03-12T02:44:36.262Z,86.52
2024-03-12T02:45:36.306Z,86.52
2024-03-12T02:46:36.242Z,86.52
2024-03-12T02:47:36.281Z,86.41
2024-03-12T02:48:36.265Z,86.31
2024-03-12T02:49:36.218Z,86.21
2024-03-12T02:50:36.199Z,86.10
2024-03-12T02:51:36.241Z,86.21
2024-03-12T02:52:36.244Z,86.31
2024-03-12T02:53:36.172Z,86.52
2024-03-12T02:54:36.222Z,86.52
2024-03-12T02:55:36.151Z,86.41
2024-03-12T02:56:36.156Z,86.52
2024-03-12T02:57:36.201Z,86.61
2024-03-12T02:58:36.135Z,86.61
2024-03-12T02:59:36.113Z,86.61
2024-03-12T03:00:36.152Z,86.61
2024-03-12T03:01:36.149Z,86.41
2024-03-12T03:02:36.072Z,86.31
2024-03-12T03:03:36.114Z,86.31
2024-03-12T03:04:36.055Z,86.31
2024-03-12T03:05:36.042Z,86.61
2024-03-12T03:06:36.042Z,86.76
2024-03-12T03:07:36.045Z,86.55
2024-03-12T03:08:36.005Z,86.45
2024-03-12T03:09:36.216Z,86.35
2024-03-12T03:10:36.001Z,86.35
2024-03-12T03:11:35.997Z,86.35
2024-03-12T03:12:36.028Z,86.55
2024-03-12T03:13:35.962Z,86.76
2024-03-12T03:14:35.955Z,86.76
2024-03-12T03:15:35.980Z,86.66
2024-03-12T03:16:35.933Z,86.66
2024-03-12T03:17:35.953Z,86.87
2024-03-12T03:18:35.961Z,86.87
2024-03-12T03:19:35.916Z,86.76
2024-03-12T03:20:35.878Z,87.01
2024-03-12T03:21:35.972Z,87.01
2024-03-12T03:22:35.860Z,87.21
2024-03-12T03:23:35.874Z,87.32
2024-03-12T03:24:35.873Z,87.42
2024-03-12T03:25:35.858Z,87.52
2024-03-12T03:26:35.819Z,87.63
2024-03-12T03:27:35.838Z,87.69
2024-03-12T03:28:35.790Z,87.59
2024-03-12T03:29:35.792Z,87.48
2024-03-12T03:30:35.829Z,87.48
2024-03-12T03:31:35.790Z,87.69
2024-03-12T03:32:35.772Z,87.69
2024-03-12T03:33:35.773Z,87.69
2024-03-12T03:34:35.742Z,87.69
2024-03-12T03:35:35.724Z,87.69
2024-03-12T03:36:35.737Z,87.69
2024-03-12T03:37:35.703Z,87.69
2024-03-12T03:38:35.701Z,87.44
2024-03-12T03:39:35.719Z,87.44
2024-03-12T03:40:35.690Z,87.44
2024-03-12T03:41:35.662Z,87.34
2024-03-12T03:42:35.706Z,87.24
2024-03-12T03:43:35.652Z,87.24
2024-03-12T03:44:35.632Z,87.24
2024-03-12T03:45:35.699Z,87.24
2024-03-12T03:46:35.612Z,87.13
2024-03-12T03:47:35.874Z,87.13
2024-03-12T03:48:35.598Z,87.13
2024-03-12T03:49:35.597Z,86.99
2024-03-12T03:50:35.562Z,86.88
2024-03-12T03:51:35.619Z,86.79
2024-03-12T03:52:35.548Z,86.68
2024-03-12T03:53:35.557Z,86.58
2024-03-12T03:54:35.565Z,86.58
2024-03-12T03:55:35.516Z,86.58
2024-03-12T03:56:35.519Z,86.47
2024-03-12T03:57:35.622Z,86.33
2024-03-12T03:58:35.493Z,86.23
2024-03-12T03:59:35.469Z,86.23
2024-03-12T04:00:35.474Z,86.23
2024-03-12T04:01:35.596Z,86.13
2024-03-12T04:02:35.434Z,86.13
2024-03-12T04:03:35.458Z,86.02
2024-03-12T04:04:35.414Z,85.92
2024-03-12T04:05:35.405Z,85.92
2024-03-12T04:06:35.399Z,85.92
2024-03-12T04:07:35.411Z,85.82
2024-03-12T04:08:35.378Z,85.71
2024-03-12T04:09:35.383Z,85.71
2024-03-12T04:10:35.384Z,85.71
2024-03-12T04:11:35.420Z,85.71
2024-03-12T04:12:35.387Z,85.51
2024-03-12T04:13:35.332Z,85.51
2024-03-12T04:14:35.304Z,85.41
2024-03-12T04:15:35.684Z,85.36
2024-03-12T04:16:35.288Z,85.36
2024-03-12T04:17:35.308Z,85.26
2024-03-12T04:19:35.258Z,85.26
2024-03-12T04:20:35.241Z,85.36
2024-03-12T04:21:35.258Z,85.36
2024-03-12T04:22:35.242Z,85.36
2024-03-12T04:23:35.221Z,85.26
2024-03-12T04:24:35.332Z,85.26
2024-03-12T04:25:35.222Z,85.26
2024-03-12T04:26:35.188Z,85.16
2024-03-12T04:27:35.203Z,85.16
2024-03-12T04:28:35.166Z,85.16
2024-03-12T04:29:35.155Z,85.26
2024-03-12T04:30:35.160Z,85.36
2024-03-12T04:31:35.155Z,85.26
2024-03-12T04:32:35.159Z,85.16
2024-03-12T04:33:35.155Z,85.06
2024-03-12T04:34:35.109Z,84.95
2024-03-12T04:35:35.084Z,84.95
2024-03-12T04:36:35.104Z,84.95
2024-03-12T04:37:35.064Z,84.81
2024-03-12T04:38:35.071Z,84.81
2024-03-12T04:39:35.185Z,84.71
2024-03-12T04:40:35.061Z,84.71
2024-03-12T04:41:35.032Z,84.81
2024-03-12T04:42:35.034Z,84.71
2024-03-12T04:43:35.018Z,84.50
2024-03-12T04:44:34.991Z,84.50
2024-03-12T04:45:35.004Z,84.61
2024-03-12T04:46:34.968Z,84.61
2024-03-12T04:47:35.019Z,84.61
2024-03-12T04:48:34.971Z,84.61
2024-03-12T04:49:34.934Z,84.61
2024-03-12T04:50:34.932Z,84.81
2024-03-12T04:51:34.944Z,85.02
2024-03-12T04:52:35.200Z,85.22
2024-03-12T04:53:34.900Z,85.33
2024-03-12T04:54:34.889Z,85.43
2024-03-12T04:55:34.885Z,85.43
2024-03-12T04:56:34.872Z,85.63
2024-03-12T04:57:34.924Z,86.05
2024-03-12T04:58:34.842Z,86.35
2024-03-12T04:59:34.852Z,87.59
2024-03-12T05:00:34.896Z,87.59
2024-03-12T05:01:35.119Z,87.59
2024-03-12T05:02:34.819Z,87.59
2024-03-12T05:03:34.888Z,87.49
2024-03-12T05:04:34.902Z,88.00
2024-03-12T05:05:34.778Z,88.82
2024-03-12T05:06:34.825Z,88.20
2024-03-12T05:07:34.778Z,87.90
2024-03-12T05:08:34.779Z,87.49
2024-03-12T05:09:34.785Z,87.59
2024-03-12T05:10:34.730Z,87.90
2024-03-12T05:11:34.779Z,87.38
2024-03-12T05:12:34.740Z,87.59
2024-03-12T05:13:34.691Z,87.69
2024-03-12T05:14:34.697Z,87.38
2024-03-12T05:15:34.735Z,87.28
2024-03-12T05:16:34.651Z,87.38
2024-03-12T05:17:34.661Z,87.49
2024-03-12T05:18:34.650Z,87.69
2024-03-12T05:19:34.622Z,87.69
2024-03-12T05:20:34.625Z,87.59
2024-03-12T05:21:34.650Z,87.79
2024-03-12T05:22:34.618Z,87.79
2024-03-12T05:23:34.614Z,87.59
2024-03-12T05:24:34.611Z,88.20
2024-03-12T05:25:34.572Z,88.20
2024-03-12T05:26:34.544Z,88.10
2024-03-12T05:27:34.803Z,88.10
2024-03-12T05:28:34.538Z,88.51
2024-03-12T05:29:34.514Z,88.62
2024-03-12T05:30:34.533Z,88.82
2024-03-12T05:31:34.496Z,88.72
2024-03-12T05:32:34.508Z,88.92
2024-03-12T05:33:34.494Z,88.92
2024-03-12T05:34:34.461Z,88.82
2024-03-12T05:35:34.470Z,88.72
2024-03-12T05:36:34.477Z,88.62
2024-03-12T05:37:34.441Z,88.51
2024-03-12T05:38:34.438Z,88.62
2024-03-12T05:39:34.428Z,88.62
2024-03-12T05:40:34.397Z,88.92
2024-03-12T05:41:34.402Z,89.13
2024-03-12T05:42:34.425Z,88.72
2024-03-12T05:43:34.379Z,88.62
2024-03-12T05:44:34.357Z,88.41
2024-03-12T05:45:34.447Z,88.41
2024-03-12T05:46:34.406Z,89.03
2024-03-12T05:47:34.337Z,89.44
2024-03-12T05:48:34.339Z,89.03
2024-03-12T05:49:34.313Z,88.72
2024-03-12T05:50:34.296Z,88.62
2024-03-12T05:51:34.308Z,88.72
2024-03-12T05:52:34.290Z,89.03
2024-03-12T05:53:34.267Z,89.34
2024-03-12T05:54:34.331Z,89.85
2024-03-12T05:55:34.260Z,90.06
2024-03-12T05:56:34.245Z,90.06
2024-03-12T05:57:34.270Z,90.16
2024-03-12T05:58:34.223Z,89.85
2024-03-12T05:59:34.204Z,89.54
2024-03-12T06:00:34.253Z,89.34
2024-03-12T06:01:34.367Z,89.44
2024-03-12T06:02:34.185Z,89.85
2024-03-12T06:03:34.243Z,89.75
2024-03-12T06:04:34.274Z,89.75
2024-03-12T06:05:34.164Z,89.85
2024-03-12T06:06:34.455Z,89.95
2024-03-12T06:07:34.136Z,89.85
2024-03-12T06:08:34.115Z,90.06
2024-03-12T06:09:34.155Z,90.06
2024-03-12T06:10:34.108Z,89.95
2024-03-12T06:11:34.107Z,89.95
2024-03-12T06:12:34.095Z,89.75
2024-03-12T06:13:34.073Z,89.50
2024-03-12T06:14:34.106Z,89.40
2024-03-12T06:15:34.040Z,89.40
2024-03-12T06:16:34.031Z,89.60
2024-03-12T06:17:34.082Z,89.91
2024-03-12T06:18:34.086Z,90.22
2024-03-12T06:19:33.984Z,90.32
2024-03-12T06:20:34.011Z,90.32
2024-03-12T06:21:34.128Z,90.32
2024-03-12T06:22:33.974Z,90.32
2024-03-12T06:23:33.971Z,90.01
2024-03-12T06:24:33.999Z,89.81
2024-03-12T06:25:33.925Z,89.81
2024-03-12T06:26:33.926Z,89.60
2024-03-12T06:27:33.969Z,89.19
2024-03-12T06:28:33.920Z,88.89
2024-03-12T06:29:33.921Z,88.78
2024-03-12T06:30:33.897Z,88.78
2024-03-12T06:31:33.872Z,88.78
2024-03-12T06:32:33.981Z,88.57
2024-03-12T06:33:33.950Z,88.37
2024-03-12T06:34:33.858Z,88.33
2024-03-12T06:35:33.838Z,88.33
2024-03-12T06:36:33.993Z,88.23
2024-03-12T06:37:33.796Z,88.23
2024-03-12T06:38:33.794Z,88.12
2024-03-12T06:39:33.830Z,88.02
2024-03-12T06:40:33.779Z,88.02
2024-03-12T06:41:33.807Z,87.92
2024-03-12T06:42:33.789Z,87.92
2024-03-12T06:43:33.733Z,88.12
2024-03-12T06:44:33.750Z,87.82
2024-03-12T06:45:33.779Z,87.51
2024-03-12T06:46:33.743Z,87.51
2024-03-12T06:47:33.741Z,87.61
2024-03-12T06:48:33.712Z,87.20
2024-03-12T06:49:33.668Z,87.30
2024-03-12T06:50:33.689Z,86.89
2024-03-12T06:51:33.685Z,86.89
2024-03-12T06:52:33.639Z,86.68
2024-03-12T06:53:33.627Z,86.79
2024-03-12T06:54:33.684Z,86.68
2024-03-12T06:55:33.617Z,86.58
2024-03-12T06:56:33.670Z,86.79
2024-03-12T06:57:33.624Z,86.48
2024-03-12T06:58:33.586Z,86.48
2024-03-12T06:59:33.566Z,86.48
2024-03-12T07:00:33.676Z,86.58
2024-03-12T07:01:33.592Z,86.75
2024-03-12T07:02:33.676Z,86.95
2024-03-12T07:03:33.554Z,86.85
2024-03-12T07:04:33.776Z,86.65
2024-03-12T07:05:33.503Z,86.75
2024-03-12T07:06:33.522Z,86.54
2024-03-12T07:07:35.442Z,86.24
2024-03-12T07:08:33.481Z,86.33
2024-03-12T07:09:33.811Z,86.03
2024-03-12T07:10:33.451Z,85.72
2024-03-12T07:11:33.494Z,85.72
2024-03-12T07:12:34.019Z,85.62
2024-03-12T07:13:33.932Z,85.62
2024-03-12T07:14:33.416Z,85.72
2024-03-12T07:15:33.492Z,85.72
2024-03-12T07:16:33.437Z,85.82
2024-03-12T07:17:33.481Z,85.52
2024-03-12T07:18:33.386Z,85.31
2024-03-12T07:19:33.376Z,85.21
2024-03-12T07:20:33.354Z,85.31
2024-03-12T07:21:33.371Z,85.31
2024-03-12T07:22:33.337Z,85.31
2024-03-12T07:23:33.342Z,85.31
2024-03-12T07:24:33.323Z,85.21
2024-03-12T07:25:33.320Z,85.31
2024-03-12T07:26:33.287Z,85.21
2024-03-12T07:27:33.287Z,85.27
2024-03-12T07:28:33.260Z,85.27
2024-03-12T07:29:33.257Z,85.17
2024-03-12T07:30:33.291Z,85.17
2024-03-12T07:31:33.235Z,85.38
2024-03-12T07:32:33.263Z,85.47
2024-03-12T07:33:33.276Z,85.47
2024-03-12T07:34:33.234Z,85.27
2024-03-12T07:35:33.186Z,85.38
2024-03-12T07:36:33.257Z,85.38
2024-03-12T07:37:33.168Z,85.47
2024-03-12T07:38:33.162Z,85.38
2024-03-12T07:39:33.167Z,85.47
2024-03-12T07:40:33.221Z,85.27
2024-03-12T07:41:33.140Z,85.17
2024-03-12T07:42:33.148Z,85.27
2024-03-12T07:43:33.125Z,85.27
2024-03-12T07:44:33.091Z,85.27
2024-03-12T07:45:33.119Z,85.17
2024-03-12T07:46:33.075Z,85.27
2024-03-12T07:47:33.100Z,85.47
2024-03-12T07:48:33.093Z,85.47
2024-03-12T07:49:33.048Z,85.47
2024-03-12T07:50:33.321Z,85.47
2024-03-12T07:51:33.072Z,85.58
2024-03-12T07:52:33.005Z,85.78
2024-03-12T07:53:33.035Z,85.47
2024-03-12T07:54:33.018Z,85.47
2024-03-12T07:55:32.975Z,85.38
2024-03-12T07:56:32.970Z,85.44
2024-03-12T07:57:33.030Z,85.44
2024-03-12T07:58:32.966Z,85.33
2024-03-12T07:59:32.949Z,85.23
2024-03-12T08:00:33.022Z,85.23
2024-03-12T08:01:32.945Z,85.33
2024-03-12T08:02:32.953Z,85.23
2024-03-12T08:03:32.930Z,85.23
2024-03-12T08:04:32.946Z,85.23
2024-03-12T08:05:35.277Z,85.03
2024-03-12T08:06:32.885Z,84.82
2024-03-12T08:07:32.839Z,84.72
2024-03-12T08:08:32.838Z,84.72
2024-03-12T08:09:32.856Z,84.72
2024-03-12T08:10:32.867Z,84.10
2024-03-12T08:11:32.885Z,84.20
2024-03-12T08:12:32.841Z,84.20
2024-03-12T08:13:32.782Z,84.31
2024-03-12T08:14:32.791Z,84.31
2024-03-12T08:15:32.790Z,84.41
2024-03-12T08:16:32.758Z,84.31
2024-03-12T08:17:32.798Z,84.17
2024-03-12T08:18:32.855Z,83.76
2024-03-12T08:19:32.806Z,83.25
2024-03-12T08:20:32.730Z,83.25
2024-03-12T08:21:32.740Z,83.25
2024-03-12T08:22:32.716Z,83.25
2024-03-12T08:23:32.675Z,83.25
2024-03-12T08:24:32.705Z,82.73
2024-03-12T08:25:39.056Z,82.73
2024-03-12T08:26:33.701Z,83.04
2024-03-12T08:27:32.672Z,83.14
2024-03-12T08:28:32.734Z,83.14
2024-03-12T08:29:32.631Z,83.14
2024-03-12T08:30:33.835Z,82.83
2024-03-12T08:31:36.117Z,82.22
2024-03-12T08:32:33.700Z,81.91
2024-03-12T08:33:32.706Z,81.81
2024-03-12T08:34:32.599Z,82.01
2024-03-12T08:35:32.588Z,82.22
2024-03-12T08:36:32.589Z,82.28
2024-03-12T08:37:34.279Z,82.28
2024-03-12T08:38:32.545Z,81.87
2024-03-12T08:39:32.590Z,81.77
2024-03-12T08:40:32.556Z,81.57
2024-03-12T08:41:32.492Z,81.57
2024-03-12T08:42:32.555Z,81.67
2024-03-12T08:43:32.561Z,81.46
2024-03-12T08:44:32.463Z,81.67
2024-03-12T08:45:32.694Z,81.57
2024-03-12T08:46:32.430Z,81.77
2024-03-12T08:47:32.440Z,81.87
2024-03-12T08:48:32.463Z,81.81
2024-03-12T08:49:32.397Z,82.32
2024-03-12T08:50:32.388Z,81.91
2024-03-12T08:51:32.406Z,81.91
2024-03-12T08:52:32.385Z,81.81
2024-03-12T08:53:32.355Z,82.01
2024-03-12T08:54:32.416Z,82.01
2024-03-12T08:55:32.343Z,82.01
2024-03-12T08:56:32.345Z,82.01
2024-03-12T08:57:32.338Z,82.18
2024-03-12T08:58:32.334Z,82.08
2024-03-12T08:59:32.297Z,81.98
2024-03-12T09:00:32.337Z,82.08
2024-03-12T09:01:32.355Z,81.87
2024-03-12T09:02:32.269Z,81.77
2024-03-12T09:03:32.383Z,81.77
2024-03-12T09:04:32.421Z,81.67
2024-03-12T09:05:32.258Z,81.77
2024-03-12T09:06:32.293Z,81.87
2024-03-12T09:07:32.229Z,81.57
2024-03-12T09:08:32.528Z,81.67
2024-03-12T09:09:32.275Z,81.43
2024-03-12T09:10:32.270Z,81.32
2024-03-12T09:11:32.192Z,81.12
2024-03-12T09:12:32.188Z,81.22
2024-03-12T09:13:32.141Z,81.43
2024-03-12T09:14:32.209Z,81.32
2024-03-12T09:15:32.141Z,80.88
2024-03-12T09:16:32.135Z,80.67
2024-03-12T09:17:32.128Z,80.16
2024-03-12T09:18:32.151Z,79.96
2024-03-12T09:19:32.085Z,80.16
2024-03-12T09:20:32.081Z,80.22
2024-03-12T09:21:32.154Z,80.43
2024-03-12T09:22:32.053Z,80.33
2024-03-12T09:23:33.718Z,80.02
2024-03-12T09:24:32.117Z,80.02
2024-03-12T09:25:32.043Z,79.71
2024-03-12T09:26:32.003Z,79.41
2024-03-12T09:27:32.055Z,79.61
2024-03-12T09:28:32.045Z,79.61
2024-03-12T09:29:31.997Z,79.61
2024-03-12T09:30:32.010Z,79.71
2024-03-12T09:31:31.966Z,79.71
2024-03-12T09:32:31.979Z,79.82
2024-03-12T09:33:31.993Z,79.82
2024-03-12T09:34:31.920Z,80.02
2024-03-12T09:35:31.915Z,80.33
2024-03-12T09:36:31.950Z,79.91
2024-03-12T09:37:31.883Z,79.71
2024-03-12T09:38:31.917Z,79.82
2024-03-12T09:39:31.992Z,80.12
2024-03-12T09:40:31.857Z,79.78
2024-03-12T09:41:31.872Z,79.47
2024-03-12T09:42:31.922Z,79.16
2024-03-12T09:43:31.841Z,79.47
2024-03-12T09:44:31.816Z,79.47
2024-03-12T09:45:31.829Z,79.41
2024-03-12T09:46:31.810Z,79.61
2024-03-12T09:47:31.858Z,79.78
2024-03-12T09:48:31.832Z,79.20
2024-03-12T09:49:31.764Z,79.47
2024-03-12T09:50:31.755Z,79.57
2024-03-12T09:51:31.799Z,79.57
2024-03-12T09:52:31.741Z,79.47
2024-03-12T09:53:31.713Z,79.41
2024-03-12T09:54:31.747Z,79.61
2024-03-12T09:55:31.714Z,79.71
2024-03-12T09:56:31.691Z,80.02
2024-03-12T09:57:31.727Z,80.02
2024-03-12T09:58:31.681Z,79.88
2024-03-12T09:59:32.133Z,79.68
2024-03-12T10:00:31.749Z,79.98
2024-03-12T10:01:31.655Z,80.29
2024-03-12T10:02:31.753Z,80.39
2024-03-12T10:03:31.620Z,80.19
2024-03-12T10:04:31.643Z,79.78
2024-03-12T10:05:31.583Z,79.47
2024-03-12T10:06:31.664Z,79.47
2024-03-12T10:07:31.591Z,79.27
2024-03-12T10:08:31.562Z,79.37
2024-03-12T10:09:31.591Z,79.47
2024-03-12T10:10:31.557Z,79.78
2024-03-12T10:11:31.751Z,79.98
2024-03-12T10:12:31.587Z,79.98
2024-03-12T10:13:31.784Z,79.78
2024-03-12T10:14:31.566Z,79.27
2024-03-12T10:15:32.542Z,79.47
2024-03-12T10:16:31.492Z,79.68
2024-03-12T10:17:31.595Z,79.47
2024-03-12T10:18:31.623Z,79.27
2024-03-12T10:19:31.475Z,79.06
2024-03-12T10:20:31.443Z,78.96
2024-03-12T10:21:31.576Z,79.16
2024-03-12T10:22:31.428Z,79.47
2024-03-12T10:23:31.422Z,79.27
2024-03-12T10:24:31.439Z,79.16
2024-03-12T10:25:31.373Z,79.57
2024-03-12T10:26:31.361Z,79.27
2024-03-12T10:27:31.394Z,79.16
2024-03-12T10:28:31.386Z,78.96
2024-03-12T10:29:31.335Z,79.06
2024-03-12T10:30:31.368Z,78.96
2024-03-12T10:31:31.366Z,79.06
2024-03-12T10:32:31.362Z,79.02
2024-03-12T10:33:31.353Z,79.02
2024-03-12T10:34:31.320Z,78.61
2024-03-12T10:35:31.268Z,78.41
2024-03-12T10:36:31.909Z,78.52
2024-03-12T10:37:31.299Z,78.72
2024-03-12T10:38:31.264Z,78.82
2024-03-12T10:39:31.343Z,78.72
2024-03-12T10:40:31.296Z,78.92
2024-03-12T10:41:31.232Z,78.52
2024-03-12T10:42:31.366Z,78.72
2024-03-12T10:43:31.190Z,78.92
2024-03-12T10:44:31.342Z,79.23
2024-03-12T10:45:31.297Z,79.23
2024-03-12T10:46:31.358Z,79.33
2024-03-12T10:47:31.241Z,79.33
2024-03-12T10:48:31.200Z,79.13
2024-03-12T10:49:31.208Z,79.02
2024-03-12T10:50:31.160Z,79.02
2024-03-12T10:51:31.397Z,78.92
2024-03-12T10:52:31.090Z,78.72
2024-03-12T10:53:32.302Z,78.88
2024-03-12T10:54:34.431Z,78.99
2024-03-12T10:55:31.086Z,78.99
2024-03-12T10:56:31.313Z,79.09
2024-03-12T10:57:31.108Z,79.19
2024-03-12T10:58:31.051Z,78.99
2024-03-12T10:59:31.282Z,79.09
2024-03-12T11:00:31.092Z,78.68
2024-03-12T11:01:31.236Z,78.68
2024-03-12T11:02:31.012Z,78.72
2024-03-12T11:03:31.060Z,78.41
2024-03-12T11:04:30.953Z,78.92
2024-03-12T11:05:30.953Z,78.72
2024-03-12T11:06:31.055Z,78.72
2024-03-12T11:07:30.960Z,78.82
2024-03-12T11:08:30.941Z,78.82
2024-03-12T11:09:30.999Z,78.41
2024-03-12T11:10:30.935Z,78.52
2024-03-12T11:11:30.917Z,78.52
2024-03-12T11:12:30.923Z,78.00
2024-03-12T11:13:30.947Z,77.80
2024-03-12T11:14:30.951Z,78.11
2024-03-12T11:15:30.872Z,77.90
2024-03-12T11:16:30.857Z,78.20
2024-03-12T11:17:30.855Z,78.20
2024-03-12T11:18:30.852Z,78.20
2024-03-12T11:19:30.855Z,78.41
2024-03-12T11:20:31.789Z,78.11
2024-03-12T11:21:30.844Z,78.41
2024-03-12T11:22:31.806Z,78.31
2024-03-12T11:23:30.784Z,78.41
2024-03-12T11:24:31.125Z,78.72
2024-03-12T11:25:30.734Z,78.72
2024-03-12T11:27:30.746Z,78.52
2024-03-12T11:28:30.738Z,78.72
2024-03-12T11:29:30.693Z,78.72
2024-03-12T11:30:30.708Z,78.82
2024-03-12T11:31:30.670Z,78.82
2024-03-12T11:32:30.816Z,79.02
2024-03-12T11:33:30.799Z,79.02
2024-03-12T11:34:30.880Z,79.02
2024-03-12T11:35:30.654Z,79.23
2024-03-12T11:36:30.788Z,79.23
2024-03-12T11:37:30.602Z,79.23
2024-03-12T11:38:30.606Z,79.23
2024-03-12T11:39:30.863Z,79.33
2024-03-12T11:40:30.731Z,79.02
2024-03-12T11:41:30.579Z,79.02
2024-03-12T11:42:30.599Z,79.02
2024-03-12T11:43:30.570Z,78.92
2024-03-12T11:44:30.535Z,79.13
2024-03-12T11:45:30.573Z,79.47
2024-03-12T11:46:30.511Z,79.47
2024-03-12T11:47:30.627Z,79.68
2024-03-12T11:48:30.565Z,79.88
2024-03-12T11:49:30.494Z,79.88
2024-03-12T11:50:30.477Z,79.98
2024-03-12T11:51:30.472Z,79.78
2024-03-12T11:52:30.448Z,79.98
2024-03-12T11:53:30.463Z,79.98
2024-03-12T11:54:30.565Z,79.78
2024-03-12T11:55:30.413Z,79.98
2024-03-12T11:56:30.410Z,80.08
2024-03-12T11:57:30.436Z,80.19
2024-03-12T11:58:30.427Z,80.29
2024-03-12T11:59:30.380Z,80.39
2024-03-12T12:00:30.400Z,80.39
2024-03-12T12:01:30.557Z,79.98
2024-03-12T12:02:30.360Z,80.80
2024-03-12T12:03:30.404Z,81.31
2024-03-12T12:04:30.443Z,80.90
2024-03-12T12:05:30.321Z,80.80
2024-03-12T12:06:30.437Z,80.66
2024-03-12T12:07:30.412Z,80.56
2024-03-12T12:08:30.401Z,80.46
2024-03-12T12:09:30.444Z,79.74
2024-03-12T12:10:30.292Z,79.53
2024-03-12T12:11:30.457Z,79.53
2024-03-12T12:12:30.266Z,79.13
2024-03-12T12:13:30.226Z,78.61
2024-03-12T12:14:30.214Z,78.61
2024-03-12T12:15:30.448Z,78.20
2024-03-12T12:16:30.365Z,77.90
2024-03-12T12:17:30.187Z,77.35
2024-03-12T12:18:30.188Z,77.56
2024-03-12T12:19:35.410Z,77.66
2024-03-12T12:20:31.412Z,77.25
2024-03-12T12:21:30.136Z,77.04
2024-03-12T12:22:30.146Z,76.90
2024-03-12T12:23:30.203Z,77.01
2024-03-12T12:24:30.119Z,76.40
2024-03-12T12:25:30.146Z,75.99
2024-03-12T12:26:30.084Z,76.09
2024-03-12T12:27:30.073Z,76.29
2024-03-12T12:28:30.061Z,76.40
2024-03-12T12:29:30.194Z,76.29
2024-03-12T12:30:30.032Z,76.29
2024-03-12T12:31:30.051Z,76.40
2024-03-12T12:32:30.133Z,76.53
2024-03-12T12:33:30.012Z,76.64
2024-03-12T12:34:30.113Z,76.64
2024-03-12T12:35:30.006Z,76.53
2024-03-12T12:36:29.994Z,76.23
2024-03-12T12:37:29.994Z,76.23
2024-03-12T12:38:29.983Z,76.43
2024-03-12T12:39:40.125Z,76.23
2024-03-12T12:40:30.976Z,75.82
2024-03-12T12:41:30.003Z,75.92
2024-03-12T12:42:29.929Z,75.78
2024-03-12T12:43:29.899Z,75.48
2024-03-12T12:44:29.904Z,75.71
2024-03-12T12:45:29.907Z,75.41
2024-03-12T12:46:29.867Z,75.41
2024-03-12T12:47:29.871Z,74.59
2024-03-12T12:48:29.861Z,74.90
2024-03-12T12:49:29.908Z,74.18
2024-03-12T12:50:30.306Z,74.43
2024-03-12T12:51:29.816Z,74.73
2024-03-12T12:52:29.846Z,74.73
2024-03-12T12:53:29.803Z,74.93
2024-03-12T12:54:29.774Z,75.14
2024-03-12T12:55:29.839Z,74.63